createdAt,value
2022-08-14T00:02:21.211Z,100789.91
2022-08-14T00:04:51.585Z,100789.28
2022-08-14T00:07:18.741Z,100787.78
2022-08-14T00:10:02.129Z,100786.72
2022-08-14T00:12:37.909Z,100792.47
2022-08-14T00:15:14.987Z,100792.06
2022-08-14T00:17:47.291Z,100790.19
2022-08-14T00:20:30.298Z,100780.63
2022-08-14T00:23:08.400Z,100783.59
2022-08-14T00:25:42.942Z,100778.75
2022-08-14T00:28:15.044Z,100768.16
2022-08-14T00:30:43.045Z,100767.72
2022-08-14T00:33:15.245Z,100767.94
2022-08-14T00:36:37.694Z,100766.25
2022-08-14T00:38:29.757Z,100758.19
2022-08-14T00:40:59.458Z,100759.25
2022-08-14T00:43:32.265Z,100761.41
2022-08-14T00:46:07.985Z,100748.72
2022-08-14T00:48:38.376Z,100760.41
2022-08-14T00:51:08.861Z,100760.78
2022-08-14T00:53:37.885Z,100768.41
2022-08-14T00:56:08.455Z,100767.56
2022-08-14T00:58:45.210Z,100765.47
2022-08-14T01:01:18.198Z,100767.13
2022-08-14T01:03:46.198Z,100768.22
2022-08-14T01:06:20.198Z,100754.47
2022-08-14T01:08:52.113Z,100759.97
2022-08-14T01:11:35.619Z,100757.28
2022-08-14T01:14:18.182Z,100757.06
2022-08-14T01:16:53.111Z,100757.50
2022-08-14T01:19:39.160Z,100766.63
2022-08-14T01:22:12.675Z,100755.63
2022-08-14T01:24:41.676Z,100751.41
2022-08-14T01:27:22.398Z,100751.81
2022-08-14T01:30:01.028Z,100748.00
2022-08-14T01:32:35.629Z,100751.19
2022-08-14T01:35:17.492Z,100751.63
2022-08-14T01:37:57.140Z,100751.81
2022-08-14T01:40:36.443Z,100757.16
2022-08-14T01:43:18.577Z,100752.47
2022-08-14T01:45:57.686Z,100754.81
2022-08-14T01:48:37.581Z,100746.53
2022-08-14T01:51:18.869Z,100752.88
2022-08-14T01:53:54.763Z,100746.13
2022-08-14T01:56:37.232Z,100748.44
2022-08-14T01:59:31.684Z,100742.31
2022-08-14T02:02:19.823Z,100749.50
2022-08-14T02:04:55.581Z,100752.69
2022-08-14T02:07:34.613Z,100757.13
2022-08-14T02:10:15.953Z,100752.91
2022-08-14T02:12:54.272Z,100755.22
2022-08-14T02:15:26.208Z,100742.31
2022-08-14T02:17:53.211Z,100752.91
2022-08-14T02:20:23.387Z,100736.41
2022-08-14T02:22:54.776Z,100736.81
2022-08-14T02:25:22.757Z,100737.03
2022-08-14T02:28:25.655Z,100733.88
2022-08-14T02:30:44.653Z,100735.56
2022-08-14T02:33:12.716Z,100736.41
2022-08-14T02:35:42.525Z,100736.81
2022-08-14T02:38:11.680Z,100732.16
2022-08-14T02:40:58.382Z,100720.31
2022-08-14T02:43:36.608Z,100734.28
2022-08-14T02:46:13.324Z,100733.44
2022-08-14T02:49:04.825Z,100721.81
2022-08-14T02:51:36.516Z,100722.66
2022-08-14T02:54:09.761Z,100731.72
2022-08-14T02:57:14.343Z,100721.78
2022-08-14T02:59:33.612Z,100727.53
2022-08-14T03:02:03.054Z,100721.63
2022-08-14T03:04:30.846Z,100724.16
2022-08-14T03:07:07.562Z,100714.84
2022-08-14T03:10:25.543Z,100717.16
2022-08-14T03:12:31.869Z,100727.09
2022-08-14T03:15:13.852Z,100723.28
2022-08-14T03:17:57.893Z,100732.59
2022-08-14T03:20:28.313Z,100727.94
2022-08-14T03:23:03.011Z,100723.50
2022-08-14T03:25:33.635Z,100722.38
2022-08-14T03:28:07.129Z,100722.59
2022-08-14T03:30:39.893Z,100726.41
2022-08-14T03:33:12.394Z,100714.19
2022-08-14T03:36:05.076Z,100716.31
2022-08-14T03:39:15.411Z,100729.19
2022-08-14T03:41:23.932Z,100716.72
2022-08-14T03:43:57.175Z,100698.34
2022-08-14T03:46:46.674Z,100700.66
2022-08-14T03:49:28.844Z,100700.44
2022-08-14T03:52:07.596Z,100699.59
2022-08-14T03:54:35.768Z,100696.63
2022-08-14T03:57:03.697Z,100697.03
2022-08-14T03:59:34.159Z,100700.00
2022-08-14T04:02:04.705Z,100702.13
2022-08-14T04:04:50.805Z,100705.06
2022-08-14T04:07:18.564Z,100698.31
2022-08-14T04:09:45.467Z,100697.03
2022-08-14T04:12:13.504Z,100691.53
2022-08-14T04:14:40.735Z,100692.56
2022-08-14T04:17:09.894Z,100690.69
2022-08-14T04:19:38.899Z,100682.84
2022-08-14T04:22:06.301Z,100690.88
2022-08-14T04:24:38.436Z,100691.72
2022-08-14T04:27:09.477Z,100688.56
2022-08-14T04:29:42.633Z,100679.47
2022-08-14T04:33:02.796Z,100683.69
2022-08-14T04:35:01.504Z,100679.88
2022-08-14T04:37:53.969Z,100674.81
2022-08-14T04:40:40.610Z,100677.75
2022-08-14T04:43:38.255Z,100677.50
2022-08-14T04:46:56.697Z,100679.84
2022-08-14T04:49:00.526Z,100685.75
2022-08-14T04:51:28.296Z,100688.88
2022-08-14T04:53:57.202Z,100691.84
2022-08-14T04:56:30.517Z,100690.72
2022-08-14T04:59:09.550Z,100684.50
2022-08-14T05:01:44.948Z,100695.94
2022-08-14T05:04:16.286Z,100687.47
2022-08-14T05:06:47.002Z,100681.06
2022-08-14T05:09:17.191Z,100676.44
2022-08-14T05:11:45.084Z,100678.09
2022-08-14T05:14:42.662Z,100675.59
2022-08-14T05:17:01.778Z,100675.56
2022-08-14T05:19:31.941Z,100674.28
2022-08-14T05:22:17.242Z,100679.56
2022-08-14T05:24:51.187Z,100678.50
2022-08-14T05:27:22.554Z,100677.16
2022-08-14T05:29:55.469Z,100673.75
2022-08-14T05:32:27.688Z,100672.38
2022-08-14T05:35:05.165Z,100677.38
2022-08-14T05:37:32.412Z,100678.69
2022-08-14T05:40:00.542Z,100670.31
2022-08-14T05:42:31.956Z,100685.06
2022-08-14T05:45:01.139Z,100677.00
2022-08-14T05:47:28.994Z,100681.78
2022-08-14T05:50:02.022Z,100668.00
2022-08-14T05:52:38.689Z,100672.53
2022-08-14T05:55:09.495Z,100668.47
2022-08-14T05:58:02.823Z,100667.84
2022-08-14T06:00:39.114Z,100657.56
2022-08-14T06:03:14.974Z,100659.78
2022-08-14T06:05:47.760Z,100648.44
2022-08-14T06:08:35.614Z,100657.09
2022-08-14T06:11:07.318Z,100652.19
2022-08-14T06:13:44.464Z,100651.34
2022-08-14T06:16:19.878Z,100643.31
2022-08-14T06:18:52.610Z,100649.81
2022-08-14T06:21:22.763Z,100646.44
2022-08-14T06:23:49.938Z,100645.91
2022-08-14T06:26:20.779Z,100641.47
2022-08-14T06:28:51.760Z,100642.75
2022-08-14T06:31:21.160Z,100641.63
2022-08-14T06:35:09.526Z,100644.22
2022-08-14T06:36:38.012Z,100646.28
2022-08-14T06:39:10.416Z,100645.16
2022-08-14T06:41:57.736Z,100654.28
2022-08-14T06:44:32.596Z,100653.72
2022-08-14T06:47:04.537Z,100650.97
2022-08-14T06:49:44.224Z,100652.59
2022-08-14T06:52:15.299Z,100650.66
2022-08-14T06:54:44.003Z,100649.28
2022-08-14T06:57:12.341Z,100646.38
2022-08-14T06:59:41.382Z,100645.06
2022-08-14T07:02:28.763Z,100643.22
2022-08-14T07:05:20.782Z,100640.47
2022-08-14T07:07:48.556Z,100637.09
2022-08-14T07:10:17.300Z,100637.56
2022-08-14T07:13:00.794Z,100627.88
2022-08-14T07:15:29.905Z,100626.44
2022-08-14T07:17:59.879Z,100629.31
2022-08-14T07:20:30.661Z,100622.59
2022-08-14T07:23:07.769Z,100628.13
2022-08-14T07:25:38.089Z,100627.81
2022-08-14T07:28:12.727Z,100628.16
2022-08-14T07:30:41.966Z,100629.84
2022-08-14T07:33:29.273Z,100629.53
2022-08-14T07:36:00.676Z,100631.50
2022-08-14T07:38:33.671Z,100624.53
2022-08-14T07:41:10.778Z,100629.94
2022-08-14T07:43:41.146Z,100629.19
2022-08-14T07:46:08.755Z,100629.78
2022-08-14T07:48:41.495Z,100634.72
2022-08-14T07:51:10.935Z,100626.03
2022-08-14T07:53:41.161Z,100621.91
2022-08-14T07:56:43.615Z,100629.94
2022-08-14T07:58:58.784Z,100615.44
2022-08-14T08:01:29.853Z,100612.69
2022-08-14T08:04:01.456Z,100609.53
2022-08-14T08:06:30.863Z,100606.00
2022-08-14T08:09:03.080Z,100611.00
2022-08-14T08:11:37.499Z,100608.41
2022-08-14T08:14:10.665Z,100604.94
2022-08-14T08:16:47.502Z,100599.66
2022-08-14T08:19:19.358Z,100597.22
2022-08-14T08:21:47.618Z,100593.09
2022-08-14T08:24:20.173Z,100597.63
2022-08-14T08:26:50.443Z,100594.03
2022-08-14T08:29:28.586Z,100593.06
2022-08-14T08:32:01.957Z,100599.84
2022-08-14T08:34:47.220Z,100600.53
2022-08-14T08:37:15.221Z,100601.75
2022-08-14T08:40:02.866Z,100599.97
2022-08-14T08:42:38.685Z,100596.19
2022-08-14T08:45:12.128Z,100599.75
2022-08-14T08:47:40.553Z,100585.38
2022-08-14T08:50:31.613Z,100584.94
2022-08-14T08:53:06.524Z,100584.00
2022-08-14T08:55:41.037Z,100581.63
2022-08-14T08:58:28.113Z,100568.03
2022-08-14T09:01:00.185Z,100561.91
2022-08-14T09:03:29.047Z,100559.41
2022-08-14T09:06:52.292Z,100551.13
2022-08-14T09:08:52.835Z,100548.34
2022-08-14T09:11:21.457Z,100550.28
2022-08-14T09:13:53.068Z,100546.38
2022-08-14T09:16:22.016Z,100552.53
2022-08-14T09:18:53.228Z,100549.19
2022-08-14T09:21:23.864Z,100545.75
2022-08-14T09:24:28.467Z,100547.31
2022-08-14T09:26:49.313Z,100534.78
2022-08-14T09:29:22.863Z,100540.97
2022-08-14T09:31:57.591Z,100536.50
2022-08-14T09:34:59.054Z,100532.09
2022-08-14T09:37:43.639Z,100525.78
2022-08-14T09:40:38.832Z,100518.50
2022-08-14T09:43:31.040Z,100519.31
2022-08-14T09:46:01.122Z,100517.72
2022-08-14T09:48:30.837Z,100518.13
2022-08-14T09:54:19.269Z,100515.38
2022-08-14T09:56:30.389Z,100511.22
2022-08-14T09:59:00.362Z,100502.28
2022-08-14T10:01:39.756Z,100494.44
2022-08-14T10:04:34.170Z,100498.84
2022-08-14T10:07:05.495Z,100496.47
2022-08-14T10:09:34.754Z,100480.59
2022-08-14T10:12:04.613Z,100493.09
2022-08-14T10:14:37.454Z,100487.56
2022-08-14T10:17:08.696Z,100495.28
2022-08-14T10:19:46.924Z,100479.47
2022-08-14T10:23:15.141Z,100474.00
2022-08-14T10:25:10.952Z,100468.19
2022-08-14T10:27:38.261Z,100466.22
2022-08-14T10:30:13.657Z,100462.84
2022-08-14T10:32:51.631Z,100463.66
2022-08-14T10:35:23.221Z,100471.09
2022-08-14T10:37:55.094Z,100456.72
2022-08-14T10:40:37.354Z,100467.94
2022-08-14T10:43:25.512Z,100456.53
2022-08-14T10:46:21.778Z,100463.44
2022-08-14T10:49:06.478Z,100461.66
2022-08-14T10:51:39.816Z,100465.69
2022-08-14T10:54:35.112Z,100462.09
2022-08-14T10:57:11.389Z,100460.94
2022-08-14T10:59:43.489Z,100461.97
2022-08-14T11:02:35.788Z,100457.31
2022-08-14T11:05:14.824Z,100450.56
2022-08-14T11:08:02.624Z,100449.53
2022-08-14T11:10:54.268Z,100454.28
2022-08-14T11:13:27.383Z,100450.38
2022-08-14T11:16:00.692Z,100444.81
2022-08-14T11:18:36.193Z,100445.34
2022-08-14T11:21:09.502Z,100451.22
2022-08-14T11:23:41.113Z,100446.16
2022-08-14T11:26:18.945Z,100438.66
2022-08-14T11:28:50.105Z,100436.69
2022-08-14T11:31:26.328Z,100430.00
2022-08-14T11:34:10.479Z,100423.22
2022-08-14T11:37:09.857Z,100421.06
2022-08-14T11:39:42.493Z,100424.72
2022-08-14T11:42:56.485Z,100410.75
2022-08-14T11:45:10.939Z,100405.69
2022-08-14T11:48:12.796Z,100406.47
2022-08-14T11:50:37.930Z,100410.03
2022-08-14T11:53:08.763Z,100400.50
2022-08-14T11:55:39.098Z,100405.88
2022-08-14T11:58:10.854Z,100400.41
2022-08-14T12:00:54.473Z,100405.31
2022-08-14T12:03:37.436Z,100393.50
2022-08-14T12:06:29.761Z,100392.53
2022-08-14T12:09:03.718Z,100384.34
2022-08-14T12:11:43.967Z,100395.63
2022-08-14T12:14:30.325Z,100387.81
2022-08-14T12:17:12.146Z,100381.81
2022-08-14T12:19:51.170Z,100382.88
2022-08-14T12:22:44.377Z,100391.03
2022-08-14T12:25:14.524Z,100385.34
2022-08-14T12:27:53.638Z,100372.53
2022-08-14T12:30:39.867Z,100380.13
2022-08-14T12:33:33.057Z,100376.22
2022-08-14T12:36:10.051Z,100382.59
2022-08-14T12:38:38.729Z,100384.00
2022-08-14T12:41:22.080Z,100378.44
2022-08-14T12:43:55.576Z,100368.38
2022-08-14T12:46:28.643Z,100372.50
2022-08-14T12:49:02.509Z,100352.88
2022-08-14T12:51:30.745Z,100349.50
2022-08-14T12:54:00.063Z,100351.22
2022-08-14T12:56:33.239Z,100350.16
2022-08-14T12:59:03.559Z,100350.69
2022-08-14T13:01:59.633Z,100344.19
2022-08-14T13:04:22.976Z,100339.28
2022-08-14T13:06:51.742Z,100340.97
2022-08-14T13:09:19.643Z,100336.28
2022-08-14T13:11:59.203Z,100328.38
2022-08-14T13:14:43.917Z,100331.72
2022-08-14T13:17:11.950Z,100330.47
2022-08-14T13:19:41.165Z,100319.56
2022-08-14T13:22:09.777Z,100320.56
2022-08-14T13:24:48.216Z,100315.81
2022-08-14T13:27:18.617Z,100315.50
2022-08-14T13:29:47.493Z,100313.44
2022-08-14T13:32:16.170Z,100301.34
2022-08-14T13:34:47.340Z,100306.41
2022-08-14T13:37:17.315Z,100307.19
2022-08-14T13:39:56.161Z,100304.06
2022-08-14T13:42:26.325Z,100296.22
2022-08-14T13:44:55.376Z,100293.63
2022-08-14T13:47:29.518Z,100292.56
2022-08-14T13:50:02.724Z,100287.19
2022-08-14T13:52:52.093Z,100280.50
2022-08-14T13:55:25.619Z,100272.69
2022-08-14T13:58:04.448Z,100277.19
2022-08-14T14:00:35.901Z,100279.88
2022-08-14T14:03:22.673Z,100283.91
2022-08-14T14:05:54.252Z,100283.00
2022-08-14T14:08:43.427Z,100277.81
2022-08-14T14:11:14.160Z,100272.50
2022-08-14T14:13:45.958Z,100266.28
2022-08-14T14:16:26.569Z,100267.41
2022-08-14T14:19:06.764Z,100272.66
2022-08-14T14:21:36.887Z,100256.06
2022-08-14T14:24:05.978Z,100260.16
2022-08-14T14:26:33.305Z,100247.63
2022-08-14T14:29:06.379Z,100243.53
2022-08-14T14:31:36.666Z,100244.00
2022-08-14T14:34:19.970Z,100242.25
2022-08-14T14:37:02.558Z,100246.31
2022-08-14T14:39:37.428Z,100246.09
2022-08-14T14:42:09.226Z,100250.72
2022-08-14T14:44:40.683Z,100251.31
2022-08-14T14:47:09.757Z,100239.91
2022-08-14T14:49:51.096Z,100241.31
2022-08-14T14:52:26.829Z,100243.53
2022-08-14T14:54:59.074Z,100244.38
2022-08-14T14:57:35.501Z,100236.56
2022-08-14T15:00:19.657Z,100232.34
2022-08-14T15:02:53.369Z,100232.88
2022-08-14T15:05:28.238Z,100225.09
2022-08-14T15:07:55.835Z,100219.38
2022-08-14T15:10:27.533Z,100216.88
2022-08-14T15:13:04.323Z,100214.84
2022-08-14T15:15:37.167Z,100213.06
2022-08-14T15:18:14.782Z,100210.38
2022-08-14T15:20:58.128Z,100205.09
2022-08-14T15:23:25.388Z,100207.88
2022-08-14T15:26:13.472Z,100189.81
2022-08-14T15:29:03.131Z,100201.06
2022-08-14T15:31:34.861Z,100205.53
2022-08-14T15:34:44.143Z,100202.69
2022-08-14T15:37:04.483Z,100201.13
2022-08-14T15:39:35.877Z,100198.06
2022-08-14T15:42:14.796Z,100200.56
2022-08-14T15:44:58.400Z,100201.41
2022-08-14T15:47:33.086Z,100202.22
2022-08-14T15:50:05.086Z,100201.41
2022-08-14T15:52:37.604Z,100212.00
2022-08-14T15:55:09.559Z,100205.34
2022-08-14T15:57:37.005Z,100204.78
2022-08-14T16:00:40.592Z,100217.03
2022-08-14T16:03:16.743Z,100200.28
2022-08-14T16:05:45.773Z,100204.53
2022-08-14T16:08:28.744Z,100205.09
2022-08-14T16:10:59.217Z,100193.97
2022-08-14T16:13:41.503Z,100196.44
2022-08-14T16:16:34.604Z,100185.88
2022-08-14T16:19:11.303Z,100185.34
2022-08-14T16:22:02.059Z,100185.63
2022-08-14T16:24:33.458Z,100185.06
2022-08-14T16:27:01.670Z,100181.16
2022-08-14T16:29:30.847Z,100180.88
2022-08-14T16:32:01.691Z,100184.47
2022-08-14T16:34:47.115Z,100189.22
2022-08-14T16:37:16.719Z,100195.34
2022-08-14T16:39:44.053Z,100188.66
2022-08-14T16:43:02.570Z,100191.75
2022-08-14T16:45:00.593Z,100183.97
2022-08-14T16:47:32.106Z,100190.03
2022-08-14T16:50:08.549Z,100190.34
2022-08-14T16:52:45.051Z,100197.56
2022-08-14T16:55:30.474Z,100191.19
2022-08-14T16:57:58.803Z,100198.69
2022-08-14T17:00:43.431Z,100191.72
2022-08-14T17:03:12.099Z,100201.41
2022-08-14T17:05:43.160Z,100201.94
2022-08-14T17:08:33.312Z,100204.72
2022-08-14T17:11:10.281Z,100201.94
2022-08-14T17:13:59.303Z,100199.38
2022-08-14T17:16:30.944Z,100186.88
2022-08-14T17:19:01.630Z,100182.94
2022-08-14T17:21:41.626Z,100182.94
2022-08-14T17:24:57.433Z,100194.31
2022-08-14T17:27:03.645Z,100195.69
2022-08-14T17:29:34.566Z,100194.59
2022-08-14T17:32:21.918Z,100200.97
2022-08-14T17:34:52.018Z,100197.06
2022-08-14T17:37:55.757Z,100196.19
2022-08-14T17:40:30.088Z,100204.81
2022-08-14T17:43:02.382Z,100204.31
2022-08-14T17:45:41.470Z,100212.09
2022-08-14T17:49:10.119Z,100209.88
2022-08-14T17:51:23.248Z,100215.09
2022-08-14T17:53:53.026Z,100219.25
2022-08-14T17:56:29.050Z,100221.75
2022-08-14T17:59:06.793Z,100219.22
2022-08-14T18:01:45.677Z,100221.72
2022-08-14T18:04:27.725Z,100220.59
2022-08-14T18:07:16.276Z,100226.44
2022-08-14T18:09:56.751Z,100226.41
2022-08-14T18:12:32.437Z,100215.56
2022-08-14T18:15:16.043Z,100215.53
2022-08-14T18:17:52.561Z,100224.69
2022-08-14T18:21:39.921Z,100222.97
2022-08-14T18:23:13.617Z,100220.44
2022-08-14T18:25:53.067Z,100228.47
2022-08-14T18:28:48.416Z,100217.16
2022-08-14T18:31:43.335Z,100221.50
2022-08-14T18:34:32.283Z,100217.28
2022-08-14T18:37:16.867Z,100219.16
2022-08-14T18:40:01.752Z,100218.00
2022-08-14T18:42:34.623Z,100220.53
2022-08-14T18:45:12.342Z,100214.97
2022-08-14T18:50:32.301Z,100229.63
2022-08-14T18:53:08.973Z,100226.28
2022-08-14T18:55:52.677Z,100223.25
2022-08-14T18:58:30.452Z,100229.19
2022-08-14T19:01:00.521Z,100237.19
2022-08-14T19:03:33.527Z,100240.34
2022-08-14T19:06:09.526Z,100243.53
2022-08-14T19:08:50.210Z,100237.84
2022-08-14T19:11:32.587Z,100240.63
2022-08-14T19:14:05.067Z,100239.78
2022-08-14T19:16:34.777Z,100238.38
2022-08-14T19:19:07.182Z,100245.78
2022-08-14T19:21:39.966Z,100229.66
2022-08-14T19:24:44.119Z,100238.75
2022-08-14T19:27:23.969Z,100237.34
2022-08-14T19:30:19.744Z,100243.34
2022-08-14T19:32:53.112Z,100236.88
2022-08-14T19:35:49.096Z,100228.25
2022-08-14T19:38:53.309Z,100227.94
2022-08-14T19:41:29.575Z,100221.22
2022-08-14T19:44:15.374Z,100216.38
2022-08-14T19:47:01.181Z,100219.06
2022-08-14T19:50:08.501Z,100214.38
2022-08-14T19:52:29.867Z,100219.59
2022-08-14T19:54:59.619Z,100214.22
2022-08-14T19:57:31.383Z,100211.53
2022-08-14T20:00:28.083Z,100209.03
2022-08-14T20:03:04.452Z,100209.84
2022-08-14T20:05:45.399Z,100208.69
2022-08-14T20:11:00.562Z,100197.28
2022-08-14T20:11:21.150Z,100205.84
2022-08-14T20:14:10.313Z,100199.72
2022-08-14T20:16:45.731Z,100195.53
2022-08-14T20:19:18.017Z,100198.75
2022-08-14T20:22:04.641Z,100200.50
2022-08-14T20:24:47.266Z,100200.34
2022-08-14T20:27:21.116Z,100207.22
2022-08-14T20:30:33.957Z,100199.41
2022-08-14T20:33:10.741Z,100190.09
2022-08-14T20:35:38.864Z,100188.72
2022-08-14T20:38:30.947Z,100181.66
2022-08-14T20:41:09.456Z,100171.84
2022-08-14T20:43:59.762Z,100173.69
2022-08-14T20:46:33.695Z,100174.78
2022-08-14T20:49:09.298Z,100164.72
2022-08-14T20:51:43.542Z,100173.59
2022-08-14T20:54:34.122Z,100174.84
2022-08-14T20:57:17.869Z,100181.47
2022-08-14T20:59:52.929Z,100183.72
2022-08-14T21:02:30.437Z,100181.81
2022-08-14T21:05:17.081Z,100180.06
2022-08-14T21:07:51.144Z,100172.16
2022-08-14T21:10:36.351Z,100183.41
2022-08-14T21:14:09.204Z,100173.97
2022-08-14T21:15:57.977Z,100173.97
2022-08-14T21:18:32.890Z,100174.31
2022-08-14T21:21:10.461Z,100178.66
2022-08-14T21:23:54.058Z,100180.34
2022-08-14T21:26:52.740Z,100176.38
2022-08-14T21:29:14.509Z,100191.34
2022-08-14T21:31:42.980Z,100178.84
2022-08-14T21:34:27.499Z,100182.69
2022-08-14T21:37:06.431Z,100178.84
2022-08-14T21:39:36.518Z,100188.22
2022-08-14T21:42:06.173Z,100188.47
2022-08-14T21:44:43.275Z,100187.63
2022-08-14T21:47:16.570Z,100195.53
2022-08-14T21:49:46.132Z,100190.63
2022-08-14T21:52:50.619Z,100186.91
2022-08-14T21:55:09.877Z,100188.97
2022-08-14T21:57:56.728Z,100183.56
2022-08-14T22:00:42.254Z,100178.63
2022-08-14T22:03:17.018Z,100180.19
2022-08-14T22:05:46.215Z,100175.63
2022-08-14T22:08:14.164Z,100184.50
2022-08-14T22:10:44.853Z,100184.00
2022-08-14T22:13:17.380Z,100192.19
2022-08-14T22:15:50.145Z,100186.41
2022-08-14T22:18:20.643Z,100181.75
2022-08-14T22:20:53.908Z,100175.72
2022-08-14T22:23:24.809Z,100177.16
2022-08-14T22:25:53.562Z,100178.00
2022-08-14T22:28:32.656Z,100174.66
2022-08-14T22:31:04.086Z,100172.25
2022-08-14T22:33:38.492Z,100166.13
2022-08-14T22:36:26.024Z,100172.84
2022-08-14T22:38:54.459Z,100166.00
2022-08-14T22:41:26.573Z,100152.66
2022-08-14T22:44:10.833Z,100151.47
2022-08-14T22:46:43.510Z,100148.59
2022-08-14T22:49:15.434Z,100159.88
2022-08-14T22:51:54.385Z,100158.09
2022-08-14T22:54:52.076Z,100155.06
2022-08-14T22:57:11.001Z,100160.59
2022-08-14T22:59:38.950Z,100150.19
2022-08-14T23:02:30.049Z,100150.91
2022-08-14T23:04:58.247Z,100154.88
2022-08-14T23:09:00.399Z,100149.00
2022-08-14T23:10:31.802Z,100144.69
2022-08-14T23:13:00.289Z,100139.06
2022-08-14T23:15:29.812Z,100133.53
2022-08-14T23:17:58.811Z,100134.84
2022-08-14T23:20:29.379Z,100137.50
2022-08-14T23:22:58.052Z,100132.56
2022-08-14T23:25:56.649Z,100130.53
2022-08-14T23:28:33.977Z,100131.75
2022-08-14T23:31:08.413Z,100127.66
2022-08-14T23:33:45.672Z,100121.19
2022-08-14T23:36:31.441Z,100116.50
2022-08-14T23:39:10.152Z,100112.66
2022-08-14T23:41:46.954Z,100115.41
2022-08-14T23:44:22.260Z,100120.69
2022-08-14T23:46:56.540Z,100123.09
2022-08-14T23:49:25.721Z,100126.22
2022-08-14T23:52:50.215Z,100111.22
2022-08-14T23:54:48.563Z,100110.38
2022-08-14T23:57:19.186Z,100108.94
2022-08-14T23:59:54.686Z,100115.31
